Skip Navigation Links
NOAA logo - Click to go to the NOAA homepage
NOAA's National Weather Service
Alaska Aviation Weather Unit
  NWS logo - Click to go to the NWS homepage
Left Navbar Graphic     00 AKDT = 08 GMT

   
NOAA is celebrating 200 years of science, service, and stewardship. Visit the NOAA 200th celebration Web site to learn more.
USA.gov is the U.S. Government's official Web portal to all Federal, state and local government Web resources and services.
Facebook
NWS on Facebook

Important Change Regarding the AAWU Web Presence

 

Over the last several months, the AAWU has been working to navigate its webpages to a nationally supported server. Security, as well as other needs, have necessitated the change.  We have been given an extension for the site changeover while we diligently work at addressing feedback received. As of July 14, 2017, aawu.arh.noaa.gov will be discontinued. The new AAWU web address is weather.gov/aawu. It is now live and will run in-parallel with the old site until it is discontinued on July 14, 2017. Please continue to send any feedback or questions regarding the new webpages to nws.ar.aawu.webauthors@noaa.gov.  Thank you for your patience during this time of transition.
AAWU Home :: Display TAF Add Bookmark
TAF CYSM 102338Z 1100/1112 VRB03KT P6SM SKC TEMPO 1109/1112 3SM FU
    RMK NXT FCST BY 110600Z=

METAR CYSM 240200Z 14009KT 090V160 15SM FEW040 SCT160 BKN190 08/03 A3004 RMK SC1AC2AC2 SLP184= METAR CYSM 240300Z 14007KT 15SM FEW040 SCT190 06/02 A3004 RMK SC1AC3 SC TR SLP186= METAR CYSM 240400Z 14006KT 15SM FEW040 FEW160 SCT190 05/02 A3005 RMK SC1AC2AC1 SC TR SLP187= METAR CYSM 240500Z 14007KT 15SM BKN160 05/01 A3004 RMK AC7 SLP186= METAR CYSM 240600Z 15005KT 15SM OVC160 04/01 A3004 RMK AC8 SLP184= METAR CYSM 240700Z 15006KT 15SM SCT160 03/01 A3004 RMK AC3 SLP184= METAR CYSM 240800Z 15006KT 15SM FEW160 04/02 A3003 RMK AC2 SLP179=
 Alaska TAF Map

NOAA's National Weather Service
Alaska Aviation Weather Unit
6930 Sand Lake Road
Anchorage, AK 99502-1845
Disclaimer
Credits
Glossary
Privacy Policy
About Us
Career Opportunities
Contact AAWU Internet Services Site last modified: April, 17th 2012